createdAt,value
2018-05-26T00:02:01.932Z,77.90
2018-05-26T00:07:30.112Z,77.50
2018-05-26T00:12:58.265Z,77.40
2018-05-26T00:18:26.410Z,77.80
2018-05-26T00:23:56.298Z,77.90
2018-05-26T00:29:25.218Z,78.00
2018-05-26T00:34:53.357Z,78.00
2018-05-26T00:40:22.336Z,78.30
2018-05-26T00:45:50.473Z,78.30
2018-05-26T00:51:21.499Z,78.40
2018-05-26T00:56:51.452Z,78.70
2018-05-26T01:02:22.324Z,78.90
2018-05-26T01:07:50.472Z,78.90
2018-05-26T01:13:18.604Z,79.00
2018-05-26T01:18:46.761Z,79.00
2018-05-26T01:24:14.923Z,79.00
2018-05-26T01:29:43.829Z,78.80
2018-05-26T01:35:11.998Z,78.80
2018-05-26T01:40:40.169Z,78.80
2018-05-26T01:46:08.332Z,78.90
2018-05-26T01:51:37.255Z,78.90
2018-05-26T01:57:06.163Z,79.30
2018-05-26T02:02:34.313Z,79.30
2018-05-26T02:08:02.452Z,79.40
2018-05-26T02:13:31.559Z,79.60
2018-05-26T02:19:00.740Z,79.70
2018-05-26T02:24:28.894Z,79.60
2018-05-26T02:29:57.083Z,79.90
2018-05-26T02:35:25.236Z,79.90
2018-05-26T02:40:53.385Z,79.90
2018-05-26T02:46:22.311Z,80.00
2018-05-26T02:51:50.448Z,80.00
2018-05-26T02:57:19.378Z,80.40
2018-05-26T03:02:48.270Z,80.50
2018-05-26T03:08:21.963Z,80.40
2018-05-26T03:13:56.560Z,80.30
2018-05-26T03:19:24.714Z,80.30
2018-05-26T03:24:52.857Z,80.40
2018-05-26T03:30:21.015Z,80.50
2018-05-26T03:35:49.173Z,80.60
2018-05-26T03:41:17.329Z,80.70
2018-05-26T03:46:45.485Z,80.70
2018-05-26T03:52:13.671Z,80.70
2018-05-26T03:58:00.480Z,80.70
2018-05-26T04:03:28.617Z,80.70
2018-05-26T04:08:56.767Z,80.70
2018-05-26T04:14:25.722Z,80.80
2018-05-26T04:19:54.959Z,80.80
2018-05-26T04:25:23.873Z,81.10
2018-05-26T04:30:52.034Z,81.10
2018-05-26T04:36:20.189Z,81.00
2018-05-26T04:41:48.345Z,81.00
2018-05-26T04:47:16.509Z,80.60
2018-05-26T04:52:44.680Z,81.00
2018-05-26T04:58:12.827Z,80.40
2018-05-26T05:03:41.751Z,80.40
2018-05-26T05:09:10.704Z,80.30
2018-05-26T05:14:38.882Z,80.30
2018-05-26T05:20:07.031Z,80.30
2018-05-26T05:25:35.953Z,79.90
2018-05-26T05:31:04.262Z,79.90
2018-05-26T05:36:32.425Z,79.70
2018-05-26T05:42:00.588Z,79.30
2018-05-26T05:47:28.720Z,79.00
2018-05-26T05:52:56.869Z,79.10
2018-05-26T05:58:25.788Z,79.20
2018-05-26T06:03:53.954Z,78.50
2018-05-26T06:09:22.097Z,77.70
2018-05-26T06:14:50.267Z,77.20
2018-05-26T06:20:18.399Z,76.90
2018-05-26T06:25:46.553Z,76.50
2018-05-26T06:31:14.835Z,76.10
2018-05-26T06:36:43.005Z,76.30
2018-05-26T06:42:13.190Z,76.30
2018-05-26T06:47:41.370Z,75.30
2018-05-26T06:53:09.537Z,75.50
2018-05-26T06:58:38.014Z,75.10
2018-05-26T07:04:06.185Z,74.90
2018-05-26T07:09:34.381Z,74.90
2018-05-26T07:15:02.644Z,75.00
2018-05-26T07:20:31.565Z,74.60
2018-05-26T07:25:59.734Z,74.20
2018-05-26T07:31:28.073Z,73.90
2018-05-26T07:36:56.539Z,74.00
2018-05-26T07:42:24.905Z,74.20
2018-05-26T07:47:53.253Z,73.80
2018-05-26T07:53:21.608Z,74.40
2018-05-26T07:58:49.992Z,73.30
2018-05-26T08:04:18.415Z,74.00
2018-05-26T08:09:46.572Z,74.00
2018-05-26T08:15:15.659Z,73.20
2018-05-26T08:20:44.629Z,72.40
2018-05-26T08:26:12.800Z,72.30
2018-05-26T08:31:41.783Z,73.00
2018-05-26T08:37:09.954Z,72.30
2018-05-26T08:42:38.183Z,72.40
2018-05-26T08:48:07.172Z,73.10
2018-05-26T08:53:35.336Z,73.00
2018-05-26T08:59:03.493Z,72.20
2018-05-26T09:04:31.664Z,72.60
2018-05-26T09:09:59.820Z,72.40
2018-05-26T09:15:27.963Z,72.00
2018-05-26T09:20:56.113Z,70.80
2018-05-26T09:26:24.290Z,70.40
2018-05-26T09:31:53.511Z,69.50
2018-05-26T09:37:21.699Z,69.00
2018-05-26T09:42:49.877Z,69.50
2018-05-26T09:48:18.020Z,68.40
2018-05-26T09:53:46.193Z,67.40
2018-05-26T09:59:15.106Z,67.50
2018-05-26T10:04:43.298Z,67.40
2018-05-26T10:10:11.496Z,66.80
2018-05-26T10:15:40.675Z,66.10
2018-05-26T10:21:08.878Z,66.00
2018-05-26T10:26:37.946Z,64.70
2018-05-26T10:32:06.960Z,64.80
2018-05-26T10:37:35.109Z,64.70
2018-05-26T10:43:03.287Z,64.20
2018-05-26T10:48:31.439Z,64.50
2018-05-26T10:53:59.587Z,63.60
2018-05-26T10:59:28.510Z,62.10
2018-05-26T11:04:56.770Z,62.20
2018-05-26T11:10:24.946Z,62.00
2018-05-26T11:16:07.987Z,61.40
2018-05-26T11:21:37.672Z,59.70
2018-05-26T11:27:05.951Z,59.60
2018-05-26T11:32:34.204Z,59.30
2018-05-26T11:38:03.509Z,59.00
2018-05-26T11:43:31.723Z,58.30
2018-05-26T11:49:00.751Z,58.70
2018-05-26T11:54:28.947Z,58.20
2018-05-26T11:59:57.882Z,57.60
2018-05-26T12:05:27.052Z,57.50
2018-05-26T12:10:56.052Z,57.30
2018-05-26T12:16:24.152Z,57.30
2018-05-26T12:21:52.300Z,56.50
2018-05-26T12:27:20.459Z,57.60
2018-05-26T12:32:48.598Z,55.90
2018-05-26T12:38:16.748Z,56.10
2018-05-26T12:43:44.894Z,55.00
2018-05-26T12:49:18.052Z,53.40
2018-05-26T12:54:46.211Z,53.90
2018-05-26T13:00:14.372Z,54.70
2018-05-26T13:05:43.302Z,54.80
2018-05-26T13:11:11.480Z,54.70
2018-05-26T13:16:39.664Z,54.60
2018-05-26T13:22:08.596Z,54.20
2018-05-26T13:27:37.570Z,53.40
2018-05-26T13:33:05.718Z,53.40
2018-05-26T13:38:34.791Z,53.40
2018-05-26T13:44:03.708Z,52.00
2018-05-26T13:49:31.884Z,52.00
2018-05-26T13:55:00.042Z,51.70
2018-05-26T14:00:28.251Z,51.70
2018-05-26T14:05:56.395Z,49.30
2018-05-26T14:11:24.549Z,49.80
2018-05-26T14:16:52.683Z,48.60
2018-05-26T14:22:20.826Z,48.00
2018-05-26T14:27:49.021Z,48.40
2018-05-26T14:33:17.203Z,46.30
2018-05-26T14:38:46.200Z,46.00
2018-05-26T14:44:14.446Z,45.90
2018-05-26T14:49:43.472Z,38.60
2018-05-26T14:55:11.687Z,38.40
2018-05-26T15:00:39.871Z,35.80
2018-05-26T15:06:08.137Z,37.00
2018-05-26T15:11:36.352Z,38.70
2018-05-26T15:17:04.542Z,40.30
2018-05-26T15:22:38.353Z,41.60
2018-05-26T15:28:06.476Z,41.50
2018-05-26T15:33:34.630Z,41.20
2018-05-26T15:39:02.783Z,41.90
2018-05-26T15:44:31.112Z,43.10
2018-05-26T15:49:59.496Z,43.90
2018-05-26T15:55:27.638Z,43.40
2018-05-26T16:00:56.603Z,44.30
2018-05-26T16:06:24.870Z,44.30
2018-05-26T16:11:53.022Z,44.40
2018-05-26T16:17:21.199Z,46.30
2018-05-26T16:22:54.224Z,48.30
2018-05-26T16:28:22.444Z,47.70
2018-05-26T16:33:50.597Z,49.00
2018-05-26T16:39:18.732Z,47.80
2018-05-26T16:44:46.925Z,48.90
2018-05-26T16:50:16.098Z,49.60
2018-05-26T16:55:44.295Z,49.60
2018-05-26T17:01:12.440Z,49.20
2018-05-26T17:06:40.600Z,50.30
2018-05-26T17:12:08.765Z,50.30
2018-05-26T17:17:36.932Z,50.40
2018-05-26T17:23:05.106Z,50.80
2018-05-26T17:28:33.246Z,51.00
2018-05-26T17:34:08.254Z,51.10
2018-05-26T17:39:36.446Z,51.50
2018-05-26T17:45:04.669Z,52.60
2018-05-26T17:50:32.825Z,53.20
2018-05-26T17:56:00.981Z,53.80
2018-05-26T18:01:29.332Z,54.90
2018-05-26T18:06:57.493Z,55.00
2018-05-26T18:12:25.657Z,55.20
2018-05-26T18:17:53.797Z,55.60
2018-05-26T18:23:24.033Z,56.10
2018-05-26T18:28:52.634Z,56.40
2018-05-26T18:34:20.785Z,56.50
2018-05-26T18:39:50.118Z,56.70
2018-05-26T18:45:18.317Z,56.90
2018-05-26T18:50:47.593Z,57.10
2018-05-26T18:56:15.764Z,57.30
2018-05-26T19:01:43.934Z,57.60
2018-05-26T19:07:12.107Z,58.00
2018-05-26T19:12:40.290Z,58.30
2018-05-26T19:18:08.525Z,58.50
2018-05-26T19:23:36.706Z,58.80
2018-05-26T19:29:05.672Z,59.20
2018-05-26T19:34:33.880Z,59.10
2018-05-26T19:40:02.021Z,59.30
2018-05-26T19:45:30.160Z,59.70
2018-05-26T19:50:58.309Z,60.10
2018-05-26T19:56:27.249Z,61.00
2018-05-26T20:01:56.140Z,61.50
2018-05-26T20:07:24.428Z,61.50
2018-05-26T20:12:52.593Z,61.90
2018-05-26T20:18:20.752Z,62.20
2018-05-26T20:23:49.714Z,63.80
2018-05-26T20:29:20.017Z,63.90
2018-05-26T20:34:48.266Z,64.10
2018-05-26T20:40:16.487Z,64.40
2018-05-26T20:45:45.462Z,65.40
2018-05-26T20:51:13.648Z,65.40
2018-05-26T20:56:42.749Z,66.30
2018-05-26T21:02:10.938Z,66.30
2018-05-26T21:07:39.166Z,66.60
2018-05-26T21:13:07.712Z,66.80
2018-05-26T21:18:36.072Z,67.40
2018-05-26T21:24:04.259Z,67.70
2018-05-26T21:29:32.497Z,68.20
2018-05-26T21:35:01.677Z,68.70
2018-05-26T21:40:30.580Z,69.20
2018-05-26T21:45:58.759Z,69.20
2018-05-26T21:51:26.904Z,69.50
2018-05-26T21:56:55.132Z,69.70
2018-05-26T22:02:23.284Z,70.00
2018-05-26T22:07:52.250Z,70.40
2018-05-26T22:13:20.399Z,70.40
2018-05-26T22:18:48.581Z,70.70
2018-05-26T22:24:17.717Z,74.20
2018-05-26T22:29:46.630Z,72.70
2018-05-26T22:35:14.816Z,72.70
2018-05-26T22:40:42.990Z,72.70
2018-05-26T22:46:11.922Z,73.10
2018-05-26T22:51:41.895Z,73.20
2018-05-26T22:57:10.820Z,73.60
2018-05-26T23:02:39.006Z,73.60
2018-05-26T23:08:07.185Z,73.80
2018-05-26T23:13:36.385Z,74.20
2018-05-26T23:19:04.544Z,74.30
2018-05-26T23:24:32.708Z,74.60
2018-05-26T23:30:00.849Z,74.70
2018-05-26T23:35:29.069Z,75.00
2018-05-26T23:40:57.220Z,75.20
2018-05-26T23:46:26.154Z,75.60
2018-05-26T23:51:55.062Z,75.70
2018-05-26T23:57:23.232Z,75.70
